Sant Quirze del Valles, Spain
Current Conditions -  °F | °C
As of 5:30 PM on Monday 26 Jan 2015 (Local Time) from LELL Reporting Station
Few Clouds Few Clouds  
Wind Chill: 50°   Ceiling: Unl
Heat Index: 50°   Visibility: 6mi
Dew Point: 32°   Wind: 1mph
Humidity: 50%   Direction: NA
Pressure: 30.27"   Gusts: NA
Location:  41.53°N, 2.08°E
Report Text: LELL 261630Z VRB01KT 9999 FEW080 10/M00 Q1025
Loading
Personal Weather Stations






























Interactive Weather Map New forecast layout! Learn more

10-Day Weather Forecast

Advertisements
Track Severe Weather on mobile